Terminal Aerodrome Forecast
Issued by NWS Twin Cities, MN

Home | Current Version | Previous Version | Text Only | Print | Product List | Glossary Off
Versions: 1 2 3 4 5 6 7 8 9 10 11 12 13 14

000
FTUS43 KMPX 252339
TAFEAU
TAF
KEAU 252339Z 2600/2624 VRB02KT P6SM FEW250
     FM261100 21005KT P6SM SCT250
     FM261800 30011G20KT P6SM BKN080
     FM262200 34012G21KT P6SM SCT080=

USA.gov is the U.S. government's official web portal to all federal, state and local government web resources and services.